createdAt,value
2019-01-21T00:00:44.177Z,15.98
2019-01-21T00:03:14.679Z,16.93
2019-01-21T00:05:43.095Z,16.93
2019-01-21T00:08:11.646Z,16.55
2019-01-21T00:10:40.179Z,16.25
2019-01-21T00:13:08.710Z,16.90
2019-01-21T00:15:37.421Z,16.85
2019-01-21T00:18:06.010Z,15.90
2019-01-21T00:20:34.579Z,15.35
2019-01-21T00:23:03.514Z,15.18
2019-01-21T00:25:32.383Z,16.55
2019-01-21T00:28:00.949Z,15.55
2019-01-21T00:30:29.830Z,16.35
2019-01-21T00:32:58.526Z,16.10
2019-01-21T00:35:27.421Z,16.73
2019-01-21T00:37:56.331Z,17.12
2019-01-21T00:40:24.875Z,15.63
2019-01-21T00:42:53.466Z,15.30
2019-01-21T00:45:22.043Z,16.48
2019-01-21T00:47:50.655Z,16.85
2019-01-21T00:50:19.215Z,15.80
2019-01-21T00:52:48.141Z,15.48
2019-01-21T00:55:16.694Z,16.07
2019-01-21T00:57:45.282Z,17.07
2019-01-21T01:00:16.792Z,15.58
2019-01-21T01:02:45.424Z,16.45
2019-01-21T01:05:13.994Z,16.40
2019-01-21T01:07:42.819Z,16.48
2019-01-21T01:10:12.182Z,17.17
2019-01-21T01:12:41.422Z,15.93
2019-01-21T01:15:11.151Z,16.40
2019-01-21T01:17:40.115Z,16.05
2019-01-21T01:20:14.808Z,15.65
2019-01-21T01:22:43.422Z,15.18
2019-01-21T01:25:12.031Z,16.32
2019-01-21T01:27:40.678Z,15.98
2019-01-21T01:30:11.062Z,15.80
2019-01-21T01:32:39.678Z,16.05
2019-01-21T01:35:09.391Z,15.35
2019-01-21T01:37:37.982Z,16.20
2019-01-21T01:40:08.891Z,16.10
2019-01-21T01:42:37.494Z,15.98
2019-01-21T01:45:06.571Z,15.93
2019-01-21T01:47:35.816Z,15.45
2019-01-21T01:50:05.150Z,16.15
2019-01-21T01:52:34.017Z,16.48
2019-01-21T01:55:02.846Z,15.58
2019-01-21T01:57:31.458Z,16.73
2019-01-21T02:00:00.387Z,17.02
2019-01-21T02:02:29.484Z,17.98
2019-01-21T02:04:58.035Z,16.65
2019-01-21T02:07:26.610Z,15.13
2019-01-21T02:09:55.539Z,16.37
2019-01-21T02:12:24.114Z,16.42
2019-01-21T02:14:52.969Z,15.95
2019-01-21T02:17:22.211Z,16.52
2019-01-21T02:19:53.076Z,15.53
2019-01-21T02:22:21.698Z,16.07
2019-01-21T02:24:50.614Z,14.93
2019-01-21T02:27:46.103Z,14.58
2019-01-21T02:30:58.129Z,16.57
2019-01-21T02:33:53.586Z,17.77
2019-01-21T02:36:44.877Z,17.02
2019-01-21T02:39:58.151Z,17.25
2019-01-21T02:42:39.835Z,15.63
2019-01-21T02:45:42.678Z,15.15
2019-01-21T02:48:46.915Z,16.15
2019-01-21T02:51:48.094Z,15.08
2019-01-21T02:54:38.938Z,14.83
2019-01-21T02:57:46.373Z,14.90
2019-01-21T03:00:49.979Z,15.20
2019-01-21T03:03:49.555Z,15.20
2019-01-21T03:06:49.930Z,15.75
2019-01-21T03:09:54.856Z,15.35
2019-01-21T03:12:38.723Z,16.62
2019-01-21T03:15:35.885Z,15.50
2019-01-21T03:18:30.110Z,16.05
2019-01-21T03:21:51.921Z,15.08
2019-01-21T03:25:07.427Z,15.28
2019-01-21T03:28:20.500Z,15.05
2019-01-21T03:31:28.287Z,15.50
2019-01-21T03:34:05.321Z,15.65
2019-01-21T03:36:49.428Z,15.50
2019-01-21T03:39:59.106Z,16.15
2019-01-21T03:42:38.062Z,16.32
2019-01-21T03:45:38.295Z,16.15
2019-01-21T03:48:31.972Z,15.95
2019-01-21T03:51:56.054Z,15.85
2019-01-21T03:54:45.006Z,16.50
2019-01-21T03:57:25.679Z,16.45
2019-01-21T04:00:06.372Z,17.25
2019-01-21T04:02:59.951Z,18.05
2019-01-21T04:05:39.891Z,17.50
2019-01-21T04:08:31.535Z,15.48
2019-01-21T04:11:43.274Z,16.82
2019-01-21T04:14:25.534Z,15.48
2019-01-21T04:17:25.404Z,16.02
2019-01-21T04:20:14.402Z,14.87
2019-01-21T04:23:31.357Z,16.00
2019-01-21T04:26:21.238Z,16.52
2019-01-21T04:29:33.378Z,15.78
2019-01-21T04:32:08.953Z,16.23
2019-01-21T04:35:23.522Z,16.57
2019-01-21T04:38:41.831Z,15.75
2019-01-21T04:41:40.096Z,16.65
2019-01-21T04:44:54.510Z,16.57
2019-01-21T04:48:05.080Z,15.43
2019-01-21T04:51:22.549Z,16.52
2019-01-21T04:54:32.115Z,16.30
2019-01-21T04:57:26.338Z,15.95
2019-01-21T05:00:17.827Z,18.40
2019-01-21T05:03:43.995Z,16.23
2019-01-21T05:06:44.765Z,16.52
2019-01-21T05:09:41.687Z,16.45
2019-01-21T05:12:18.062Z,17.00
2019-01-21T05:15:46.290Z,16.73
2019-01-21T05:19:07.049Z,16.77
2019-01-21T05:22:17.473Z,17.52
2019-01-21T05:25:04.156Z,16.97
2019-01-21T05:28:20.684Z,17.23
2019-01-21T05:31:09.784Z,17.17
2019-01-21T05:34:10.518Z,16.95
2019-01-21T05:37:19.421Z,17.12
2019-01-21T05:40:31.617Z,17.57
2019-01-21T05:43:41.707Z,16.60
2019-01-21T05:46:45.830Z,17.30
2019-01-21T05:50:02.031Z,17.25
2019-01-21T05:52:57.857Z,16.48
2019-01-21T05:56:13.499Z,16.70
2019-01-21T05:59:18.354Z,17.20
2019-01-21T06:02:40.410Z,16.77
2019-01-21T06:05:31.736Z,17.25
2019-01-21T06:08:26.627Z,17.32
2019-01-21T06:11:06.653Z,18.00
2019-01-21T06:14:05.938Z,17.27
2019-01-21T06:17:09.490Z,18.00
2019-01-21T06:20:34.810Z,16.55
2019-01-21T06:23:32.562Z,17.12
2019-01-21T06:26:44.776Z,16.12
2019-01-21T06:29:31.479Z,18.02
2019-01-21T06:32:47.862Z,16.42
2019-01-21T06:35:39.527Z,17.85
2019-01-21T06:38:39.494Z,17.30
2019-01-21T06:41:50.822Z,18.23
2019-01-21T06:44:52.250Z,17.15
2019-01-21T06:47:48.620Z,18.17
2019-01-21T06:50:37.878Z,17.48
2019-01-21T06:53:49.067Z,18.10
2019-01-21T06:56:50.675Z,21.42
2019-01-21T07:00:04.478Z,19.60
2019-01-21T07:03:02.866Z,18.45
2019-01-21T07:06:17.307Z,17.77
2019-01-21T07:09:20.698Z,18.73
2019-01-21T07:12:40.496Z,19.77
2019-01-21T07:15:56.992Z,19.67
2019-01-21T07:19:10.951Z,18.90
2019-01-21T07:22:30.105Z,19.12
2019-01-21T07:25:55.911Z,17.92
2019-01-21T07:28:54.342Z,17.48
2019-01-21T07:31:44.078Z,16.02
2019-01-21T07:35:09.384Z,16.27
2019-01-21T07:38:03.602Z,16.27
2019-01-21T07:41:10.171Z,17.95
2019-01-21T07:44:00.780Z,17.95
2019-01-21T07:47:02.955Z,17.48
2019-01-21T07:50:09.622Z,17.75
2019-01-21T07:53:14.551Z,18.87
2019-01-21T07:56:23.651Z,19.20
2019-01-21T07:59:25.834Z,34.10
2019-01-21T08:02:05.924Z,32.38
2019-01-21T08:05:25.574Z,24.27
2019-01-21T08:08:31.039Z,23.02
2019-01-21T08:11:28.303Z,20.32
2019-01-21T08:14:40.578Z,20.43
2019-01-21T08:17:23.222Z,18.60
2019-01-21T08:20:36.915Z,18.95
2019-01-21T08:23:52.667Z,19.37
2019-01-21T08:26:51.326Z,21.30
2019-01-21T08:29:36.522Z,20.57
2019-01-21T08:32:51.018Z,19.62
2019-01-21T08:35:48.343Z,19.92
2019-01-21T08:38:46.097Z,19.23
2019-01-21T08:41:47.261Z,19.57
2019-01-21T08:44:42.427Z,19.07
2019-01-21T08:47:48.925Z,19.95
2019-01-21T08:50:58.874Z,19.70
2019-01-21T08:53:36.579Z,20.43
2019-01-21T08:56:40.179Z,18.73
2019-01-21T08:59:33.886Z,19.70
2019-01-21T09:02:42.878Z,20.45
2019-01-21T09:05:27.255Z,20.82
2019-01-21T09:08:40.578Z,19.50
2019-01-21T09:11:33.050Z,20.17
2019-01-21T09:14:58.650Z,19.25
2019-01-21T09:18:13.784Z,19.42
2019-01-21T09:21:21.114Z,20.48
2019-01-21T09:24:46.690Z,20.60
2019-01-21T09:27:49.973Z,19.02
2019-01-21T09:30:49.131Z,18.87
2019-01-21T09:34:02.667Z,18.55
2019-01-21T09:37:04.199Z,17.23
2019-01-21T09:40:12.562Z,18.60
2019-01-21T09:43:29.216Z,17.37
2019-01-21T09:46:29.179Z,18.10
2019-01-21T09:48:56.895Z,17.35
2019-01-21T09:51:25.838Z,18.10
2019-01-21T09:53:54.802Z,18.67
2019-01-21T09:56:23.702Z,18.62
2019-01-21T09:58:52.565Z,17.15
2019-01-21T10:01:21.178Z,18.30
2019-01-21T10:03:50.038Z,18.48
2019-01-21T10:06:21.710Z,18.82
2019-01-21T10:09:31.693Z,18.10
2019-01-21T10:12:39.668Z,18.17
2019-01-21T10:15:20.733Z,16.37
2019-01-21T10:18:26.570Z,17.60
2019-01-21T10:21:24.505Z,17.48
2019-01-21T10:24:40.767Z,16.95
2019-01-21T10:27:36.930Z,16.52
2019-01-21T10:30:20.879Z,17.32
2019-01-21T10:33:44.881Z,17.67
2019-01-21T10:37:06.145Z,17.60
2019-01-21T10:40:16.419Z,17.73
2019-01-21T10:43:16.198Z,17.48
2019-01-21T10:46:34.582Z,17.95
2019-01-21T10:49:47.421Z,18.32
2019-01-21T10:52:59.810Z,18.60
2019-01-21T10:55:48.550Z,17.77
2019-01-21T10:58:44.930Z,17.62
2019-01-21T11:01:33.469Z,16.70
2019-01-21T11:04:19.476Z,18.30
2019-01-21T11:07:21.366Z,17.32
2019-01-21T11:10:05.387Z,15.93
2019-01-21T11:13:03.996Z,16.82
2019-01-21T11:16:05.639Z,17.37
2019-01-21T11:19:22.030Z,16.50
2019-01-21T11:22:40.182Z,17.32
2019-01-21T11:25:47.571Z,32.00
2019-01-21T11:28:26.504Z,18.10
2019-01-21T11:31:25.474Z,18.73
2019-01-21T11:34:48.151Z,18.35
2019-01-21T11:38:07.694Z,16.93
2019-01-21T11:41:09.227Z,16.87
2019-01-21T11:44:18.855Z,17.90
2019-01-21T11:47:45.198Z,17.15
2019-01-21T11:50:41.924Z,17.77
2019-01-21T11:53:37.335Z,16.25
2019-01-21T11:56:41.858Z,16.93
2019-01-21T11:59:34.103Z,16.15
2019-01-21T12:02:31.453Z,16.80
2019-01-21T12:05:39.663Z,16.80
2019-01-21T12:08:35.806Z,16.93
2019-01-21T12:11:44.376Z,16.10
2019-01-21T12:15:12.776Z,16.42
2019-01-21T12:18:27.919Z,16.20
2019-01-21T12:21:49.419Z,17.75
2019-01-21T12:24:45.222Z,18.02
2019-01-21T12:27:45.007Z,17.65
2019-01-21T12:30:49.038Z,18.12
2019-01-21T12:34:04.274Z,18.30
2019-01-21T12:37:10.598Z,21.02
2019-01-21T12:40:14.662Z,20.60
2019-01-21T12:43:26.622Z,17.70
2019-01-21T12:46:23.467Z,17.02
2019-01-21T12:49:02.710Z,16.27
2019-01-21T12:51:59.238Z,17.10
2019-01-21T12:54:45.782Z,17.15
2019-01-21T12:58:04.410Z,17.98
2019-01-21T13:01:16.757Z,18.35
2019-01-21T13:04:23.039Z,16.37
2019-01-21T13:07:31.998Z,16.80
2019-01-21T13:10:45.422Z,15.83
2019-01-21T13:13:51.235Z,16.90
2019-01-21T13:16:45.591Z,16.62
2019-01-21T13:19:47.963Z,16.97
2019-01-21T13:23:09.998Z,18.32
2019-01-21T13:26:12.478Z,17.35
2019-01-21T13:29:04.958Z,17.42
2019-01-21T13:31:52.930Z,15.80
2019-01-21T13:35:02.002Z,14.93
2019-01-21T13:37:53.666Z,15.40
2019-01-21T13:40:50.575Z,15.50
2019-01-21T13:44:25.794Z,15.60
2019-01-21T13:47:44.058Z,15.88
2019-01-21T13:50:20.973Z,15.88
2019-01-21T13:53:58.466Z,16.17
2019-01-21T13:56:56.214Z,15.93
2019-01-21T14:00:17.386Z,16.30
2019-01-21T14:02:51.246Z,15.18
2019-01-21T14:05:32.210Z,15.50
2019-01-21T14:08:41.530Z,17.07
2019-01-21T14:11:38.640Z,16.00
2019-01-21T14:14:31.288Z,7.97
2019-01-21T14:17:36.385Z,16.00
2019-01-21T14:20:16.814Z,15.80
2019-01-21T14:23:12.331Z,16.07
2019-01-21T14:26:28.542Z,16.93
2019-01-21T14:29:23.739Z,16.80
2019-01-21T14:32:15.710Z,17.45
2019-01-21T14:35:29.622Z,14.38
2019-01-21T14:38:14.726Z,15.38
2019-01-21T14:41:26.383Z,16.20
2019-01-21T14:44:49.039Z,15.25
2019-01-21T14:47:29.622Z,15.55
2019-01-21T14:50:33.990Z,16.05
2019-01-21T14:53:55.447Z,16.73
2019-01-21T14:56:58.030Z,17.75
2019-01-21T14:59:56.741Z,16.57
2019-01-21T15:03:10.026Z,16.52
2019-01-21T15:06:16.517Z,15.32
2019-01-21T15:09:04.388Z,16.07
2019-01-21T15:12:14.699Z,15.63
2019-01-21T15:15:08.667Z,15.53
2019-01-21T15:17:53.000Z,16.35
2019-01-21T15:20:49.275Z,16.77
2019-01-21T15:23:50.893Z,16.42
2019-01-21T15:26:25.398Z,16.20
2019-01-21T15:29:21.440Z,16.27
2019-01-21T15:32:12.846Z,15.68
2019-01-21T15:35:07.772Z,15.45
2019-01-21T15:38:20.173Z,15.00
2019-01-21T15:41:26.691Z,15.23
2019-01-21T15:44:36.142Z,15.60
2019-01-21T15:47:54.945Z,15.35
2019-01-21T15:50:57.677Z,15.55
2019-01-21T15:53:45.462Z,16.17
2019-01-21T15:56:40.782Z,14.40
2019-01-21T15:59:33.826Z,16.27
2019-01-21T16:02:24.391Z,15.05
2019-01-21T16:05:30.534Z,14.93
2019-01-21T16:08:23.567Z,14.85
2019-01-21T16:11:21.558Z,15.18
2019-01-21T16:13:54.098Z,15.50
2019-01-21T16:16:56.982Z,14.73
2019-01-21T16:19:49.492Z,15.03
2019-01-21T16:22:43.198Z,14.73
2019-01-21T16:25:37.766Z,14.20
2019-01-21T16:28:32.396Z,14.83
2019-01-21T16:31:44.378Z,14.43
2019-01-21T16:34:37.529Z,16.00
2019-01-21T16:37:18.387Z,15.08
2019-01-21T16:40:18.408Z,14.87
2019-01-21T16:42:47.614Z,16.67
2019-01-21T16:45:16.802Z,16.17
2019-01-21T16:47:45.790Z,16.70
2019-01-21T16:50:14.351Z,17.73
2019-01-21T16:52:43.280Z,17.70
2019-01-21T16:55:12.171Z,16.87
2019-01-21T16:57:40.712Z,16.30
2019-01-21T17:00:09.540Z,16.77
2019-01-21T17:02:38.090Z,20.40
2019-01-21T17:05:07.626Z,20.35
2019-01-21T17:07:36.827Z,20.50
2019-01-21T17:10:06.814Z,18.92
2019-01-21T17:12:35.903Z,18.67
2019-01-21T17:15:05.795Z,19.05
2019-01-21T17:17:34.740Z,19.82
2019-01-21T17:20:03.583Z,21.82
2019-01-21T17:22:32.587Z,21.37
2019-01-21T17:25:01.510Z,20.85
2019-01-21T17:27:30.307Z,21.62
2019-01-21T17:29:59.513Z,20.90
2019-01-21T17:32:28.314Z,21.80
2019-01-21T17:34:57.003Z,21.00
2019-01-21T17:37:26.895Z,20.10
2019-01-21T17:39:55.506Z,20.45
2019-01-21T17:42:24.458Z,20.85
2019-01-21T17:44:53.031Z,18.60
2019-01-21T17:47:21.645Z,18.92
2019-01-21T17:49:50.522Z,17.23
2019-01-21T17:52:19.089Z,18.40
2019-01-21T17:54:47.668Z,18.70
2019-01-21T17:57:16.269Z,17.07
2019-01-21T17:59:45.135Z,18.12
2019-01-21T18:02:14.478Z,19.42
2019-01-21T18:04:43.974Z,18.27
2019-01-21T18:07:12.547Z,17.65
2019-01-21T18:09:41.463Z,19.23
2019-01-21T18:12:10.023Z,19.30
2019-01-21T18:14:38.606Z,18.48
2019-01-21T18:17:07.521Z,21.95
2019-01-21T18:19:36.401Z,19.40
2019-01-21T18:22:05.009Z,19.77
2019-01-21T18:24:33.954Z,19.90
2019-01-21T18:27:02.839Z,20.68
2019-01-21T18:29:31.658Z,19.98
2019-01-21T18:32:00.558Z,19.27
2019-01-21T18:34:29.095Z,19.75
2019-01-21T18:36:58.006Z,20.52
2019-01-21T18:39:26.574Z,20.00
2019-01-21T18:41:55.435Z,21.17
2019-01-21T18:44:24.393Z,20.40
2019-01-21T18:46:53.288Z,20.02
2019-01-21T18:49:22.921Z,19.80
2019-01-21T18:51:51.971Z,19.98
2019-01-21T18:54:20.534Z,22.15
2019-01-21T18:56:49.562Z,21.10
2019-01-21T18:59:18.562Z,25.15
2019-01-21T19:01:47.478Z,24.35
2019-01-21T19:04:16.132Z,26.57
2019-01-21T19:06:44.710Z,26.07
2019-01-21T19:09:13.274Z,24.87
2019-01-21T19:11:42.195Z,26.42
2019-01-21T19:14:10.752Z,24.60
2019-01-21T19:16:39.341Z,21.87
2019-01-21T19:19:09.436Z,20.15
2019-01-21T19:21:38.135Z,20.05
2019-01-21T19:24:06.742Z,20.57
2019-01-21T19:26:35.543Z,21.15
2019-01-21T19:29:04.151Z,17.52
2019-01-21T19:31:32.918Z,16.70
2019-01-21T19:34:01.466Z,16.35
2019-01-21T19:36:30.046Z,15.65
2019-01-21T19:38:59.031Z,16.20
2019-01-21T19:41:28.018Z,15.00
2019-01-21T19:43:57.086Z,16.73
2019-01-21T19:46:25.955Z,16.07
2019-01-21T19:48:54.882Z,17.05
2019-01-21T19:51:23.498Z,17.15
2019-01-21T19:53:52.098Z,16.80
2019-01-21T19:56:20.674Z,15.55
2019-01-21T19:58:49.599Z,15.68
2019-01-21T20:01:18.458Z,16.93
2019-01-21T20:03:47.282Z,16.10
2019-01-21T20:06:16.161Z,17.35
2019-01-21T20:08:44.735Z,17.48
2019-01-21T20:11:13.346Z,18.80
2019-01-21T20:13:41.888Z,18.80
2019-01-21T20:16:11.109Z,18.23
2019-01-21T20:18:39.901Z,17.87
2019-01-21T20:21:08.455Z,19.42
2019-01-21T20:23:37.786Z,18.50
2019-01-21T20:26:06.626Z,19.20
2019-01-21T20:28:35.226Z,17.67
2019-01-21T20:31:03.829Z,16.25
2019-01-21T20:33:32.729Z,16.85
2019-01-21T20:36:01.291Z,14.87
2019-01-21T20:38:30.202Z,16.87
2019-01-21T20:40:59.403Z,14.83
2019-01-21T20:43:27.956Z,18.00
2019-01-21T20:45:56.558Z,17.98
2019-01-21T20:48:25.673Z,18.07
2019-01-21T20:50:54.286Z,19.37
2019-01-21T20:53:23.292Z,18.82
2019-01-21T20:55:52.547Z,18.27
2019-01-21T20:58:21.147Z,19.10
2019-01-21T21:00:50.005Z,19.05
2019-01-21T21:03:18.578Z,20.88
2019-01-21T21:05:47.843Z,23.75
2019-01-21T21:08:17.024Z,22.87
2019-01-21T21:10:45.900Z,24.37
2019-01-21T21:13:14.782Z,25.05
2019-01-21T21:15:43.658Z,25.10
2019-01-21T21:18:13.083Z,23.32
2019-01-21T21:20:41.639Z,20.27
2019-01-21T21:23:10.552Z,19.42
2019-01-21T21:25:39.770Z,19.75
2019-01-21T21:28:08.433Z,20.75
2019-01-21T21:30:36.998Z,18.30
2019-01-21T21:33:06.410Z,17.95
2019-01-21T21:35:35.520Z,19.85
2019-01-21T21:38:04.109Z,19.50
2019-01-21T21:40:32.682Z,19.65
2019-01-21T21:43:01.854Z,20.97
2019-01-21T21:45:30.794Z,19.02
2019-01-21T21:48:01.265Z,19.65
2019-01-21T21:50:31.881Z,21.10
2019-01-21T21:53:00.803Z,21.50
2019-01-21T21:55:29.869Z,20.55
2019-01-21T21:57:58.761Z,21.48
2019-01-21T22:00:28.146Z,21.52
2019-01-21T22:02:57.321Z,21.77
2019-01-21T22:05:25.911Z,20.95
2019-01-21T22:07:54.703Z,21.48
2019-01-21T22:10:25.150Z,22.45
2019-01-21T22:12:53.775Z,24.80
2019-01-21T22:15:22.798Z,24.10
2019-01-21T22:17:51.686Z,23.73
2019-01-21T22:20:21.771Z,21.07
2019-01-21T22:22:51.003Z,20.40
2019-01-21T22:25:20.266Z,20.70
2019-01-21T22:27:49.103Z,20.27
2019-01-21T22:30:22.835Z,18.92
2019-01-21T22:32:51.494Z,17.92
2019-01-21T22:35:20.372Z,18.15
2019-01-21T22:37:49.579Z,18.42
2019-01-21T22:40:20.107Z,17.87
2019-01-21T22:42:48.662Z,17.35
2019-01-21T22:45:17.938Z,16.82
2019-01-21T22:47:47.266Z,17.12
2019-01-21T22:50:16.350Z,18.45
2019-01-21T22:52:44.943Z,18.67
2019-01-21T22:55:14.401Z,17.57
2019-01-21T22:57:43.083Z,18.02
2019-01-21T23:00:23.110Z,17.42
2019-01-21T23:02:51.646Z,18.20
2019-01-21T23:05:20.250Z,16.73
2019-01-21T23:07:49.686Z,17.52
2019-01-21T23:10:18.774Z,16.48
2019-01-21T23:12:47.335Z,17.98
2019-01-21T23:15:15.937Z,18.85
2019-01-21T23:20:22.119Z,17.80
2019-01-21T23:22:51.019Z,18.17
2019-01-21T23:25:19.566Z,16.15
2019-01-21T23:27:48.539Z,18.20
2019-01-21T23:30:17.167Z,17.02
2019-01-21T23:32:45.770Z,18.73
2019-01-21T23:35:14.333Z,18.30
2019-01-21T23:37:42.909Z,18.40
2019-01-21T23:40:11.702Z,20.68
2019-01-21T23:42:40.266Z,18.82
2019-01-21T23:45:08.910Z,19.40
2019-01-21T23:47:37.775Z,18.55
2019-01-21T23:50:07.190Z,18.27
2019-01-21T23:52:35.730Z,19.20
2019-01-21T23:55:05.007Z,18.60
2019-01-21T23:57:33.926Z,17.70
